createdAt,value
2022-12-01T00:00:35.704Z,100708.78
2022-12-01T00:03:07.292Z,100773.03
2022-12-01T00:05:38.973Z,100776.34
2022-12-01T00:08:10.969Z,100770.94
2022-12-01T00:10:42.319Z,100782.97
2022-12-01T00:13:13.957Z,100787.31
2022-12-01T00:15:45.855Z,100797.13
2022-12-01T00:18:17.299Z,100800.03
2022-12-01T00:20:52.474Z,100803.41
2022-12-01T00:23:24.700Z,100808.19
2022-12-01T00:25:55.957Z,100805.50
2022-12-01T00:28:27.293Z,100805.50
2022-12-01T00:30:58.607Z,100799.28
2022-12-01T00:33:30.092Z,100818.81
2022-12-01T00:36:05.958Z,100790.41
2022-12-01T00:38:38.366Z,100811.78
2022-12-01T00:41:10.019Z,100823.50
2022-12-01T00:43:41.356Z,100814.38
2022-12-01T00:46:12.802Z,100839.31
2022-12-01T00:48:44.213Z,100837.81
2022-12-01T00:51:15.537Z,100825.78
2022-12-01T00:53:47.520Z,100823.69
2022-12-01T00:56:18.200Z,100851.22
2022-12-01T00:58:49.619Z,100854.81
2022-12-01T01:01:21.062Z,100856.06
2022-12-01T01:03:53.051Z,100860.19
2022-12-01T01:06:24.456Z,100858.69
2022-12-01T01:08:55.992Z,100851.00
2022-12-01T01:11:27.659Z,100859.69
2022-12-01T01:14:01.085Z,100855.97
2022-12-01T01:16:33.060Z,100878.63
2022-12-01T01:19:04.795Z,100879.19
2022-12-01T01:21:36.111Z,100858.94
2022-12-01T01:24:07.881Z,100881.91
2022-12-01T01:26:39.665Z,100888.56
2022-12-01T01:29:11.073Z,100890.66
2022-12-01T01:31:43.750Z,100877.56
2022-12-01T01:34:15.176Z,100891.69
2022-12-01T01:36:47.351Z,100883.16
2022-12-01T01:39:19.318Z,100884.63
2022-12-01T01:41:51.022Z,100902.47
2022-12-01T01:44:57.075Z,100898.34
2022-12-01T01:47:46.698Z,100901.28
2022-12-01T01:50:23.361Z,100894.59
2022-12-01T01:53:02.002Z,100912.44
2022-12-01T01:55:35.785Z,100771.53
2022-12-01T01:58:11.359Z,100782.97
2022-12-01T02:00:45.679Z,100850.56
2022-12-01T02:03:19.032Z,100925.91
2022-12-01T02:05:50.504Z,100897.91
2022-12-01T02:08:21.775Z,100904.97
2022-12-01T02:10:53.125Z,100929.44
2022-12-01T02:13:46.037Z,100927.63
2022-12-01T02:16:41.889Z,100858.88
2022-12-01T02:20:05.125Z,100833.00
2022-12-01T02:23:08.101Z,100911.19
2022-12-01T02:25:51.750Z,100863.22
2022-12-01T02:28:41.571Z,100917.78
2022-12-01T02:31:32.859Z,100837.22
2022-12-01T02:34:27.588Z,100906.56
2022-12-01T02:37:20.700Z,100908.56
2022-12-01T02:40:05.454Z,100915.81
2022-12-01T02:42:58.012Z,100902.31
2022-12-01T02:46:00.244Z,100919.16
2022-12-01T02:48:44.721Z,100928.09
2022-12-01T02:51:37.971Z,100906.06
2022-12-01T02:54:10.371Z,100901.44
2022-12-01T02:56:41.673Z,100913.81
2022-12-01T02:59:17.507Z,100836.69
2022-12-01T03:02:31.217Z,100919.84
2022-12-01T03:05:02.549Z,100917.13
2022-12-01T03:08:04.834Z,100909.50
2022-12-01T03:10:56.009Z,100840.44
2022-12-01T03:13:36.366Z,100904.56
2022-12-01T03:16:18.537Z,100906.25
2022-12-01T03:18:49.933Z,100901.44
2022-12-01T03:21:28.710Z,100881.09
2022-12-01T03:24:13.278Z,100874.16
2022-12-01T03:26:50.081Z,100894.31
2022-12-01T03:29:35.286Z,100873.72
2022-12-01T03:32:22.851Z,100896.94
2022-12-01T03:35:02.816Z,100875.69
2022-12-01T03:37:57.661Z,100878.25
2022-12-01T03:40:32.894Z,100881.06
2022-12-01T03:43:11.551Z,100784.84
2022-12-01T03:45:48.583Z,100844.69
2022-12-01T03:48:20.777Z,100866.81
2022-12-01T03:51:06.849Z,100833.84
2022-12-01T03:53:49.999Z,100780.13
2022-12-01T03:56:27.147Z,100852.13
2022-12-01T03:59:02.141Z,100775.69
2022-12-01T04:01:36.070Z,100832.19
2022-12-01T04:04:13.362Z,100783.63
2022-12-01T04:06:49.502Z,100824.88
2022-12-01T04:09:20.943Z,100816.53
2022-12-01T04:12:10.367Z,100807.78
2022-12-01T04:14:42.080Z,100764.84
2022-12-01T04:17:13.336Z,100797.91
2022-12-01T04:19:44.664Z,100808.19
2022-12-01T04:22:16.059Z,100799.47
2022-12-01T04:24:47.740Z,100803.16
2022-12-01T04:27:19.457Z,100791.91
2022-12-01T04:29:51.129Z,100801.63
2022-12-01T04:32:22.121Z,100803.03
2022-12-01T04:34:53.967Z,100793.75
2022-12-01T04:37:24.719Z,100783.38
2022-12-01T04:39:55.968Z,100785.28
2022-12-01T04:42:27.481Z,100790.22
2022-12-01T04:44:58.809Z,100781.97
2022-12-01T04:47:30.428Z,100792.53
2022-12-01T04:50:02.917Z,100783.78
2022-12-01T04:52:35.503Z,100788.75
2022-12-01T04:55:07.130Z,100785.56
2022-12-01T04:57:39.158Z,100760.88
2022-12-01T05:00:14.737Z,100775.94
2022-12-01T05:02:47.460Z,100757.88
2022-12-01T05:05:18.819Z,100762.38
2022-12-01T05:07:50.168Z,100750.78
2022-12-01T05:10:21.833Z,100761.31
2022-12-01T05:12:53.375Z,100743.25
2022-12-01T05:15:24.689Z,100755.41
2022-12-01T05:17:55.972Z,100742.78
2022-12-01T05:20:46.619Z,100763.09
2022-12-01T05:23:18.048Z,100742.44
2022-12-01T05:25:49.311Z,100741.16
2022-12-01T05:28:21.361Z,100733.84
2022-12-01T05:30:53.524Z,100728.53
2022-12-01T05:33:25.573Z,100723.34
2022-12-01T05:35:57.585Z,100710.00
2022-12-01T05:38:29.277Z,100707.44
2022-12-01T05:41:00.768Z,100711.78
2022-12-01T05:43:32.055Z,100699.03
2022-12-01T05:46:03.560Z,100673.06
2022-12-01T05:48:35.026Z,100681.47
2022-12-01T05:51:14.597Z,100634.59
2022-12-01T05:53:46.424Z,100668.03
2022-12-01T05:56:18.512Z,100654.78
2022-12-01T05:58:50.343Z,100651.25
2022-12-01T06:01:21.791Z,100636.88
2022-12-01T06:03:54.649Z,100627.44
2022-12-01T06:06:26.470Z,100625.06
2022-12-01T06:08:57.925Z,100613.97
2022-12-01T06:11:29.241Z,100556.03
2022-12-01T06:14:00.614Z,100599.91
2022-12-01T06:16:31.916Z,100592.59
2022-12-01T06:19:03.318Z,100572.19
2022-12-01T06:21:34.752Z,100574.56
2022-12-01T06:24:06.489Z,100550.94
2022-12-01T06:26:38.214Z,100564.84
2022-12-01T06:29:09.648Z,100566.53
2022-12-01T06:31:41.032Z,100548.34
2022-12-01T06:34:13.554Z,100486.56
2022-12-01T06:36:45.469Z,100563.66
2022-12-01T06:39:18.683Z,100542.78
2022-12-01T06:41:50.074Z,100552.00
2022-12-01T06:44:21.645Z,100552.09
2022-12-01T06:46:54.359Z,100546.81
2022-12-01T06:49:25.826Z,100553.72
2022-12-01T06:51:57.161Z,100528.63
2022-12-01T06:54:28.460Z,100544.06
2022-12-01T06:57:00.154Z,100543.56
2022-12-01T06:59:31.236Z,100538.66
2022-12-01T07:02:04.705Z,100529.72
2022-12-01T07:04:36.144Z,100517.06
2022-12-01T07:07:08.816Z,100519.31
2022-12-01T07:09:40.231Z,100518.25
2022-12-01T07:12:11.607Z,100483.22
2022-12-01T07:14:43.957Z,100498.16
2022-12-01T07:17:15.160Z,100491.91
2022-12-01T07:19:46.628Z,100495.53
2022-12-01T07:22:18.295Z,100415.81
2022-12-01T07:24:49.782Z,100497.19
2022-12-01T07:27:21.164Z,100493.41
2022-12-01T07:29:52.489Z,100500.50
2022-12-01T07:32:24.070Z,100490.22
2022-12-01T07:34:55.980Z,100484.50
2022-12-01T07:37:27.477Z,100486.19
2022-12-01T07:39:59.248Z,100479.47
2022-12-01T07:42:30.557Z,100479.47
2022-12-01T07:45:01.940Z,100480.03
2022-12-01T07:47:33.203Z,100473.53
2022-12-01T07:50:06.016Z,100478.50
2022-12-01T07:52:37.610Z,100427.34
2022-12-01T07:55:09.686Z,100470.25
2022-12-01T07:57:41.013Z,100488.88
2022-12-01T08:00:12.893Z,100488.88
2022-12-01T08:02:44.304Z,100494.31
2022-12-01T08:05:15.668Z,100500.88
2022-12-01T08:07:47.038Z,100501.72
2022-12-01T08:10:18.758Z,100483.81
2022-12-01T08:12:50.192Z,100510.44
2022-12-01T08:15:22.083Z,100486.38
2022-12-01T08:17:53.751Z,100488.97
2022-12-01T08:20:25.104Z,100496.34
2022-12-01T08:22:56.378Z,100498.25
2022-12-01T08:25:27.651Z,100489.06
2022-12-01T08:27:59.363Z,100478.81
2022-12-01T08:30:32.539Z,100479.97
2022-12-01T08:33:03.863Z,100493.13
2022-12-01T08:35:38.464Z,100413.53
2022-12-01T08:38:15.664Z,100474.78
2022-12-01T08:40:47.191Z,100494.81
2022-12-01T08:43:41.469Z,100488.31
2022-12-01T08:46:09.751Z,100492.31
2022-12-01T08:48:42.252Z,100458.38
2022-12-01T08:51:18.507Z,100495.13
2022-12-01T08:53:51.666Z,100495.63
2022-12-01T08:56:35.652Z,100490.84
2022-12-01T08:59:07.657Z,100508.13
2022-12-01T09:02:00.450Z,100502.69
2022-12-01T09:04:35.270Z,100514.66
2022-12-01T09:07:06.871Z,100504.28
2022-12-01T09:09:38.505Z,100525.53
2022-12-01T09:12:10.657Z,100530.97
2022-12-01T09:14:47.097Z,100456.81
2022-12-01T09:17:19.747Z,100534.81
2022-12-01T09:19:51.629Z,100534.88
2022-12-01T09:22:23.384Z,100537.38
2022-12-01T09:24:54.599Z,100544.84
2022-12-01T09:27:25.855Z,100527.75
2022-12-01T09:29:57.610Z,100545.22
2022-12-01T09:32:28.642Z,100550.34
2022-12-01T09:35:00.006Z,100528.84
2022-12-01T09:37:31.363Z,100551.28
2022-12-01T09:40:03.151Z,100551.72
2022-12-01T09:42:35.697Z,100553.50
2022-12-01T09:45:08.117Z,100557.66
2022-12-01T09:47:41.514Z,100564.38
2022-12-01T09:50:20.981Z,100570.88
2022-12-01T09:53:17.134Z,100574.56
2022-12-01T09:55:48.739Z,100563.69
2022-12-01T09:58:24.932Z,100544.31
2022-12-01T10:00:57.218Z,100567.91
2022-12-01T10:03:47.902Z,100482.53
2022-12-01T10:06:28.553Z,100552.25
2022-12-01T10:09:08.192Z,100563.44
2022-12-01T10:11:44.254Z,100579.25
2022-12-01T10:14:22.554Z,100564.88
2022-12-01T10:17:16.666Z,100575.97
2022-12-01T10:19:53.478Z,100543.53
2022-12-01T10:22:43.526Z,100590.59
2022-12-01T10:25:28.448Z,100586.22
2022-12-01T10:28:07.375Z,100523.38
2022-12-01T10:30:51.277Z,100528.78
2022-12-01T10:33:34.798Z,100530.09
2022-12-01T10:36:06.339Z,100600.28
2022-12-01T10:38:38.644Z,100612.06
2022-12-01T10:41:16.505Z,100607.47
2022-12-01T10:43:52.266Z,100617.72
2022-12-01T10:46:34.331Z,100621.03
2022-12-01T10:49:19.714Z,100566.53
2022-12-01T10:51:54.714Z,100489.84
2022-12-01T10:54:35.908Z,100642.19
2022-12-01T10:57:16.158Z,100643.94
2022-12-01T11:00:10.498Z,100651.97
2022-12-01T11:02:45.950Z,100507.69
2022-12-01T11:05:27.913Z,100651.75
2022-12-01T11:07:59.648Z,100656.34
2022-12-01T11:10:39.371Z,100662.72
2022-12-01T11:13:25.600Z,100659.53
2022-12-01T11:15:59.509Z,100579.38
2022-12-01T11:18:34.949Z,100662.81
2022-12-01T11:21:16.613Z,100665.28
2022-12-01T11:23:50.338Z,100596.63
2022-12-01T11:26:30.471Z,100666.38
2022-12-01T11:29:03.368Z,100665.53
2022-12-01T11:31:49.670Z,100637.00
2022-12-01T11:34:41.215Z,100606.16
2022-12-01T11:37:20.250Z,100626.75
2022-12-01T11:39:53.799Z,100690.81
2022-12-01T11:42:31.079Z,100691.63
2022-12-01T11:45:25.153Z,100702.50
2022-12-01T11:48:22.639Z,100698.13
2022-12-01T11:51:29.383Z,100630.00
2022-12-01T11:54:24.387Z,100700.63
2022-12-01T11:57:31.651Z,100691.75
2022-12-01T11:59:50.227Z,100609.72
2022-12-01T12:02:56.999Z,100654.38
2022-12-01T12:05:44.030Z,100677.03
2022-12-01T12:08:30.991Z,100706.88
2022-12-01T12:11:02.392Z,100696.34
2022-12-01T12:13:41.974Z,100657.41
2022-12-01T12:16:22.294Z,100721.28
2022-12-01T12:19:17.000Z,100735.69
2022-12-01T12:22:09.695Z,100737.84
2022-12-01T12:24:57.131Z,100754.22
2022-12-01T12:27:43.189Z,100750.22
2022-12-01T12:30:25.804Z,100765.31
2022-12-01T12:33:12.278Z,100771.69
2022-12-01T12:36:21.371Z,100782.50
2022-12-01T12:38:58.095Z,100784.25
2022-12-01T12:41:36.467Z,100780.59
2022-12-01T12:44:37.801Z,100790.38
2022-12-01T12:47:21.701Z,100798.31
2022-12-01T12:50:05.929Z,100805.50
2022-12-01T12:52:42.763Z,100722.63
2022-12-01T12:55:17.244Z,100798.63
2022-12-01T12:57:54.949Z,100795.91
2022-12-01T13:00:37.767Z,100788.09
2022-12-01T13:03:46.548Z,100705.41
2022-12-01T13:06:34.577Z,100814.19
2022-12-01T13:09:38.254Z,100808.84
2022-12-01T13:12:28.311Z,100766.00
2022-12-01T13:15:16.945Z,100813.59
2022-12-01T13:18:28.428Z,100812.25
2022-12-01T13:21:00.995Z,100805.38
2022-12-01T13:23:34.754Z,100802.94
2022-12-01T13:26:10.648Z,100825.34
2022-12-01T13:28:56.633Z,100832.44
2022-12-01T13:31:28.181Z,100832.44
2022-12-01T13:34:03.890Z,100830.19
2022-12-01T13:36:46.686Z,100769.50
2022-12-01T13:39:30.890Z,100832.41
2022-12-01T13:42:07.601Z,100831.41
2022-12-01T13:44:53.842Z,100833.66
2022-12-01T13:47:40.207Z,100833.66
2022-12-01T13:50:49.139Z,100830.53
2022-12-01T13:53:28.075Z,100832.19
2022-12-01T13:56:17.346Z,100826.44
2022-12-01T13:58:56.619Z,100820.50
2022-12-01T14:01:28.090Z,100833.22
2022-12-01T14:04:18.172Z,100831.19
2022-12-01T14:06:52.088Z,100847.50
2022-12-01T14:09:40.000Z,100855.00
2022-12-01T14:12:22.036Z,100845.06
2022-12-01T14:15:01.800Z,100840.22
2022-12-01T14:17:39.782Z,100769.69
2022-12-01T14:20:18.085Z,100841.44
2022-12-01T14:23:11.059Z,100788.81
2022-12-01T14:25:44.425Z,100778.53
2022-12-01T14:28:19.742Z,100856.91
2022-12-01T14:30:53.259Z,100856.09
2022-12-01T14:33:46.414Z,100861.78
2022-12-01T14:36:26.744Z,100858.81
2022-12-01T14:39:01.153Z,100855.03
2022-12-01T14:42:10.904Z,100876.53
2022-12-01T14:44:56.703Z,100859.91
2022-12-01T14:47:44.269Z,100815.53
2022-12-01T14:50:26.448Z,100862.63
2022-12-01T14:53:04.552Z,100861.31
2022-12-01T14:55:44.050Z,100718.97
2022-12-01T14:58:28.536Z,100789.91
2022-12-01T15:01:14.747Z,100853.28
2022-12-01T15:03:50.593Z,100785.38
2022-12-01T15:06:24.746Z,100785.75
2022-12-01T15:09:35.522Z,100874.63
2022-12-01T15:12:08.781Z,100849.03
2022-12-01T15:14:48.686Z,100784.56
2022-12-01T15:17:38.520Z,100770.03
2022-12-01T15:20:33.674Z,100866.09
2022-12-01T15:23:14.445Z,100783.69
2022-12-01T15:25:48.001Z,100802.56
2022-12-01T15:28:22.598Z,100837.16
2022-12-01T15:30:56.942Z,100814.72
2022-12-01T15:33:37.173Z,100825.94
2022-12-01T15:36:09.904Z,100817.19
2022-12-01T15:38:44.376Z,100728.94
2022-12-01T15:41:31.291Z,100815.34
2022-12-01T15:44:05.121Z,100794.72
2022-12-01T15:46:37.034Z,100794.94
2022-12-01T15:49:22.990Z,100763.66
2022-12-01T15:51:55.555Z,100779.63
2022-12-01T15:54:29.377Z,100795.41
2022-12-01T15:57:03.020Z,100794.78
2022-12-01T15:59:44.141Z,100786.03
2022-12-01T16:02:38.639Z,100780.28
2022-12-01T16:05:16.047Z,100786.28
2022-12-01T16:10:40.534Z,100769.06
2022-12-01T16:13:49.252Z,100785.31
2022-12-01T16:16:38.894Z,100782.59
2022-12-01T16:19:10.193Z,100784.66
2022-12-01T16:22:27.230Z,100787.00
2022-12-01T16:24:58.555Z,100790.72
2022-12-01T16:27:31.181Z,100797.41
2022-12-01T16:30:24.394Z,100791.22
2022-12-01T16:33:04.684Z,100781.59
2022-12-01T16:35:36.516Z,100774.53
2022-12-01T16:38:24.457Z,100651.91
2022-12-01T16:40:58.275Z,100784.97
2022-12-01T16:43:31.338Z,100790.81
2022-12-01T16:46:06.149Z,100730.47
2022-12-01T16:48:39.150Z,100786.91
2022-12-01T16:51:14.645Z,100760.44
2022-12-01T16:53:50.802Z,100771.03
2022-12-01T16:56:22.643Z,100772.09
2022-12-01T16:58:53.918Z,100776.63
2022-12-01T17:01:25.302Z,100759.59
2022-12-01T17:03:56.704Z,100776.38
2022-12-01T17:06:27.950Z,100777.44
2022-12-01T17:08:59.194Z,100772.00
2022-12-01T17:11:30.984Z,100761.19
2022-12-01T17:14:02.641Z,100756.19
2022-12-01T17:16:33.894Z,100746.03
2022-12-01T17:19:05.793Z,100760.75
2022-12-01T17:21:36.456Z,100748.03
2022-12-01T17:24:09.561Z,100739.94
2022-12-01T17:26:40.978Z,100731.25
2022-12-01T17:29:12.344Z,100722.50
2022-12-01T17:31:43.876Z,100719.16
2022-12-01T17:34:15.442Z,100727.28
2022-12-01T17:36:46.884Z,100708.59
2022-12-01T17:39:18.127Z,100722.69
2022-12-01T17:41:49.426Z,100713.75
2022-12-01T17:44:20.620Z,100716.81
2022-12-01T17:46:52.595Z,100716.66
2022-12-01T17:49:24.033Z,100713.94
2022-12-01T17:51:55.270Z,100712.50
2022-12-01T17:54:26.556Z,100710.63
2022-12-01T17:56:58.009Z,100705.91
2022-12-01T17:59:29.336Z,100685.75
2022-12-01T18:02:00.716Z,100710.50
2022-12-01T18:04:33.595Z,100652.22
2022-12-01T18:07:05.295Z,100684.28
2022-12-01T18:09:36.808Z,100683.25
2022-12-01T18:12:08.191Z,100674.75
2022-12-01T18:14:39.999Z,100667.28
2022-12-01T18:17:11.334Z,100686.81
2022-12-01T18:19:42.614Z,100678.97
2022-12-01T18:22:13.993Z,100682.50
2022-12-01T18:24:45.242Z,100688.91
2022-12-01T18:27:16.738Z,100685.16
2022-12-01T18:29:48.019Z,100683.88
2022-12-01T18:32:19.342Z,100667.72
2022-12-01T18:34:53.513Z,100670.41
2022-12-01T18:37:24.882Z,100667.31
2022-12-01T18:39:59.834Z,100661.06
2022-12-01T18:42:31.182Z,100669.63
2022-12-01T18:45:02.918Z,100661.56
2022-12-01T18:47:34.260Z,100665.84
2022-12-01T18:50:06.224Z,100665.72
2022-12-01T18:52:39.020Z,100659.88
2022-12-01T18:55:10.834Z,100657.44
2022-12-01T18:57:42.702Z,100649.94
2022-12-01T19:00:14.831Z,100646.16
2022-12-01T19:02:47.049Z,100648.88
2022-12-01T19:05:18.347Z,100649.94
2022-12-01T19:07:50.508Z,100620.72
2022-12-01T19:10:22.039Z,100641.19
2022-12-01T19:12:53.246Z,100630.41
2022-12-01T19:15:24.694Z,100636.69
2022-12-01T19:17:57.137Z,100552.94
2022-12-01T19:20:28.372Z,100616.34
2022-12-01T19:22:59.661Z,100592.72
2022-12-01T19:25:31.212Z,100615.13
2022-12-01T19:28:02.999Z,100629.00
2022-12-01T19:30:34.694Z,100612.00
2022-12-01T19:33:06.517Z,100611.34
2022-12-01T19:35:38.215Z,100604.50
2022-12-01T19:38:09.583Z,100605.25
2022-12-01T19:40:41.312Z,100591.81
2022-12-01T19:43:12.691Z,100594.94
2022-12-01T19:45:43.959Z,100586.00
2022-12-01T19:48:15.188Z,100577.28
2022-12-01T19:50:46.491Z,100578.31
2022-12-01T19:53:17.916Z,100579.38
2022-12-01T19:55:49.139Z,100583.28
2022-12-01T19:58:20.812Z,100574.25
2022-12-01T20:00:52.597Z,100581.03
2022-12-01T20:03:23.909Z,100577.31
2022-12-01T20:05:55.205Z,100581.91
2022-12-01T20:08:27.219Z,100566.13
2022-12-01T20:11:01.470Z,100574.41
2022-12-01T20:13:37.272Z,100533.75
2022-12-01T20:16:14.402Z,100428.69
2022-12-01T20:18:46.311Z,100582.13
2022-12-01T20:21:26.516Z,100587.31
2022-12-01T20:24:03.355Z,100595.88
2022-12-01T20:26:43.780Z,100504.31
2022-12-01T20:29:23.911Z,100584.84
2022-12-01T20:31:57.840Z,100614.16
2022-12-01T20:34:37.811Z,100510.97
2022-12-01T20:37:09.746Z,100570.78
2022-12-01T20:39:43.129Z,100592.38
2022-12-01T20:42:15.063Z,100572.47
2022-12-01T20:44:46.439Z,100578.66
2022-12-01T20:47:20.045Z,100579.94
2022-12-01T20:49:54.241Z,100585.97
2022-12-01T20:52:29.851Z,100587.38
2022-12-01T20:55:01.147Z,100579.69
2022-12-01T20:57:32.446Z,100566.25
2022-12-01T21:00:03.681Z,100563.75
2022-12-01T21:02:35.055Z,100570.38
2022-12-01T21:05:06.853Z,100562.03
2022-12-01T21:07:38.185Z,100565.81
2022-12-01T21:10:09.809Z,100562.09
2022-12-01T21:13:00.445Z,100574.16
2022-12-01T21:15:34.171Z,100563.91
2022-12-01T21:18:19.065Z,100527.16
2022-12-01T21:20:55.007Z,100558.34
2022-12-01T21:23:28.968Z,100498.31
2022-12-01T21:26:00.410Z,100562.72
2022-12-01T21:28:32.609Z,100531.69
2022-12-01T21:31:15.768Z,100471.84
2022-12-01T21:33:47.621Z,100560.91
2022-12-01T21:36:24.192Z,100417.84
2022-12-01T21:39:01.971Z,100471.44
2022-12-01T21:41:33.566Z,100554.88
2022-12-01T21:44:15.012Z,100552.88
2022-12-01T21:46:47.202Z,100562.97
2022-12-01T21:49:35.789Z,100516.66
2022-12-01T21:52:23.995Z,100558.09
2022-12-01T21:54:55.938Z,100552.88
2022-12-01T21:57:51.068Z,100581.75
2022-12-01T22:00:35.946Z,100579.00
2022-12-01T22:03:10.938Z,100582.75
2022-12-01T22:06:07.121Z,100576.94
2022-12-01T22:08:42.754Z,100495.56
2022-12-01T22:11:24.920Z,100581.34
2022-12-01T22:14:17.076Z,100582.22
2022-12-01T22:17:16.621Z,100585.97
2022-12-01T22:19:55.763Z,100569.38
2022-12-01T22:22:32.425Z,100582.66
2022-12-01T22:25:27.818Z,100594.94
2022-12-01T22:28:01.585Z,100559.47
2022-12-01T22:30:33.087Z,100539.19
2022-12-01T22:33:07.581Z,100605.31
2022-12-01T22:35:46.629Z,100601.97
2022-12-01T22:38:31.197Z,100606.34
2022-12-01T22:41:08.684Z,100617.56
2022-12-01T22:43:47.881Z,100599.94
2022-12-01T22:46:36.250Z,100605.56
2022-12-01T22:49:24.335Z,100611.13
2022-12-01T22:52:17.799Z,100597.22
2022-12-01T22:54:51.365Z,100591.63
2022-12-01T22:57:38.640Z,100577.16
2022-12-01T23:00:18.522Z,100522.47
2022-12-01T23:02:57.523Z,100539.25
2022-12-01T23:05:31.870Z,100620.47
2022-12-01T23:08:04.212Z,100624.47
2022-12-01T23:10:37.053Z,100639.59
2022-12-01T23:13:26.646Z,100600.13
2022-12-01T23:15:58.437Z,100609.22
2022-12-01T23:18:33.537Z,100629.13
2022-12-01T23:21:05.419Z,100618.34
2022-12-01T23:23:39.495Z,100555.75
2022-12-01T23:26:11.212Z,100636.56
2022-12-01T23:28:42.823Z,100647.75
2022-12-01T23:31:14.218Z,100645.66
2022-12-01T23:33:45.645Z,100644.00
2022-12-01T23:36:30.052Z,100590.56
2022-12-01T23:39:06.872Z,100660.97
2022-12-01T23:41:52.708Z,100605.44
2022-12-01T23:44:39.201Z,100669.03
2022-12-01T23:47:31.262Z,100667.19
2022-12-01T23:50:14.542Z,100690.41
2022-12-01T23:52:45.920Z,100686.19
2022-12-01T23:55:30.845Z,100685.00
2022-12-01T23:58:03.324Z,100674.22
